createdAt,value
2019-03-24T00:04:55.142Z,70.56
2019-03-24T00:09:58.483Z,70.19
2019-03-24T00:15:01.853Z,70.36
2019-03-24T00:20:10.257Z,69.80
2019-03-24T00:25:13.493Z,68.33
2019-03-24T00:30:16.910Z,68.69
2019-03-24T00:35:20.322Z,69.29
2019-03-24T00:40:23.655Z,69.54
2019-03-24T00:45:36.426Z,69.19
2019-03-24T00:50:32.056Z,69.43
2019-03-24T00:55:35.395Z,70.51
2019-03-24T01:00:41.898Z,73.08
2019-03-24T01:05:45.843Z,71.76
2019-03-24T01:10:49.181Z,73.44
2019-03-24T01:15:52.505Z,71.14
2019-03-24T01:20:55.916Z,70.10
2019-03-24T01:25:59.271Z,71.19
2019-03-24T01:31:02.681Z,72.94
2019-03-24T01:36:06.090Z,70.77
2019-03-24T01:41:09.423Z,72.95
2019-03-24T01:46:12.874Z,70.19
2019-03-24T01:51:16.228Z,73.23
2019-03-24T01:56:19.554Z,73.23
2019-03-24T02:01:22.923Z,70.54
2019-03-24T02:06:26.225Z,72.72
2019-03-24T02:11:29.564Z,72.11
2019-03-24T02:16:32.902Z,72.46
2019-03-24T02:21:36.234Z,70.33
2019-03-24T02:26:39.740Z,70.43
2019-03-24T02:31:43.076Z,70.67
2019-03-24T02:36:46.411Z,70.53
2019-03-24T02:41:49.750Z,70.15
2019-03-24T02:46:53.089Z,71.72
2019-03-24T02:51:56.433Z,70.83
2019-03-24T02:56:59.785Z,70.97
2019-03-24T03:02:03.129Z,71.41
2019-03-24T03:07:06.473Z,70.81
2019-03-24T03:12:09.806Z,70.66
2019-03-24T03:17:13.141Z,71.95
2019-03-24T03:22:16.474Z,70.75
2019-03-24T03:27:19.968Z,71.91
2019-03-24T03:32:23.323Z,71.90
2019-03-24T03:37:26.701Z,73.64
2019-03-24T03:42:29.973Z,73.19
2019-03-24T03:47:33.338Z,71.67
2019-03-24T03:52:36.748Z,70.57
2019-03-24T03:57:40.137Z,72.94
2019-03-24T04:02:43.479Z,72.50
2019-03-24T04:07:46.813Z,72.33
2019-03-24T04:12:50.230Z,72.01
2019-03-24T04:17:53.575Z,73.22
2019-03-24T04:22:57.056Z,73.22
2019-03-24T04:28:00.533Z,73.43
2019-03-24T04:33:03.893Z,72.45
2019-03-24T04:38:07.229Z,72.57
2019-03-24T04:43:10.570Z,72.63
2019-03-24T04:48:13.908Z,72.37
2019-03-24T04:53:17.238Z,72.30
2019-03-24T04:58:20.582Z,73.16
2019-03-24T05:03:23.993Z,73.15
2019-03-24T05:08:27.710Z,73.87
2019-03-24T05:13:31.048Z,73.04
2019-03-24T05:18:34.383Z,73.17
2019-03-24T05:23:37.792Z,73.49
2019-03-24T05:28:41.210Z,73.29
2019-03-24T05:33:44.620Z,73.57
2019-03-24T05:38:48.098Z,73.57
2019-03-24T05:43:51.430Z,74.15
2019-03-24T05:48:54.836Z,73.37
2019-03-24T05:53:58.163Z,72.35
2019-03-24T05:59:01.514Z,73.16
2019-03-24T06:04:04.933Z,73.64
2019-03-24T06:09:08.296Z,73.62
2019-03-24T06:14:11.629Z,72.11
2019-03-24T06:19:14.981Z,71.91
2019-03-24T06:24:18.314Z,72.30
2019-03-24T06:29:21.651Z,72.75
2019-03-24T06:34:25.001Z,74.22
2019-03-24T06:39:28.339Z,73.24
2019-03-24T06:44:31.671Z,72.91
2019-03-24T06:49:35.016Z,73.30
2019-03-24T06:54:38.425Z,72.63
2019-03-24T06:59:41.803Z,72.46
2019-03-24T07:04:45.169Z,72.06
2019-03-24T07:09:48.502Z,71.64
2019-03-24T07:14:52.798Z,71.94
2019-03-24T07:19:56.136Z,72.94
2019-03-24T07:24:59.475Z,72.71
2019-03-24T07:30:03.991Z,70.96
2019-03-24T07:35:07.470Z,69.57
2019-03-24T07:40:10.872Z,68.60
2019-03-24T07:45:14.385Z,68.54
2019-03-24T07:50:18.801Z,67.88
2019-03-24T07:55:22.108Z,67.74
2019-03-24T08:00:33.168Z,67.20
2019-03-24T08:05:36.527Z,66.62
2019-03-24T08:10:39.855Z,65.77
2019-03-24T08:15:44.165Z,64.72
2019-03-24T08:20:47.507Z,63.59
2019-03-24T08:25:50.848Z,63.45
2019-03-24T08:30:54.180Z,62.06
2019-03-24T08:35:57.521Z,61.73
2019-03-24T08:41:00.848Z,60.73
2019-03-24T08:46:04.190Z,58.88
2019-03-24T08:51:07.541Z,57.14
2019-03-24T08:56:10.984Z,57.73
2019-03-24T09:01:14.335Z,54.81
2019-03-24T09:06:17.687Z,55.64
2019-03-24T09:11:30.808Z,55.20
2019-03-24T09:16:26.219Z,53.57
2019-03-24T09:21:29.568Z,52.44
2019-03-24T09:26:32.924Z,53.60
2019-03-24T09:31:36.350Z,52.67
2019-03-24T09:36:39.717Z,51.51
2019-03-24T09:41:43.054Z,51.83
2019-03-24T09:46:46.390Z,51.42
2019-03-24T09:51:49.811Z,52.18
2019-03-24T09:56:53.205Z,51.88
2019-03-24T10:01:56.633Z,51.75
2019-03-24T10:06:59.987Z,51.05
2019-03-24T10:12:03.322Z,49.75
2019-03-24T10:17:06.672Z,49.81
2019-03-24T10:22:10.039Z,48.39
2019-03-24T10:27:13.366Z,49.71
2019-03-24T10:32:16.694Z,49.48
2019-03-24T10:37:20.050Z,47.40
2019-03-24T10:42:23.398Z,46.23
2019-03-24T10:47:26.750Z,48.08
2019-03-24T10:52:30.101Z,48.69
2019-03-24T10:57:33.446Z,47.73
2019-03-24T11:02:36.878Z,48.47
2019-03-24T11:07:40.296Z,47.05
2019-03-24T11:12:43.648Z,44.58
2019-03-24T11:17:47.003Z,45.03
2019-03-24T11:22:50.360Z,43.56
2019-03-24T11:27:53.734Z,46.08
2019-03-24T11:32:57.177Z,43.00
2019-03-24T11:38:00.534Z,43.59
2019-03-24T11:43:03.899Z,42.85
2019-03-24T11:48:07.253Z,42.80
2019-03-24T11:53:10.595Z,42.73
2019-03-24T11:58:13.948Z,42.29
2019-03-24T12:03:17.303Z,42.16
2019-03-24T12:08:20.664Z,39.81
2019-03-24T12:13:24.072Z,41.20
2019-03-24T12:18:27.415Z,41.49
2019-03-24T12:23:30.734Z,42.01
2019-03-24T12:28:34.206Z,40.62
2019-03-24T12:33:37.581Z,40.36
2019-03-24T12:38:41.880Z,39.09
2019-03-24T12:43:45.265Z,41.95
2019-03-24T12:48:48.609Z,43.99
2019-03-24T12:53:51.979Z,43.96
2019-03-24T12:58:55.450Z,45.59
2019-03-24T13:03:58.870Z,45.89
2019-03-24T13:09:02.251Z,45.66
2019-03-24T13:14:05.651Z,42.58
2019-03-24T13:19:09.004Z,40.83
2019-03-24T13:24:12.365Z,39.23
2019-03-24T13:29:15.792Z,38.25
2019-03-24T13:34:19.198Z,41.07
2019-03-24T13:39:22.586Z,37.99
2019-03-24T13:44:25.948Z,38.42
2019-03-24T13:49:29.295Z,38.67
2019-03-24T13:54:32.644Z,38.62
2019-03-24T13:59:36.270Z,39.69
2019-03-24T14:04:39.631Z,39.94
2019-03-24T14:09:42.988Z,39.80
2019-03-24T14:14:46.335Z,42.46
2019-03-24T14:19:49.668Z,42.09
2019-03-24T14:24:53.040Z,42.03
2019-03-24T14:29:56.400Z,40.54
2019-03-24T14:34:59.756Z,39.25
2019-03-24T14:40:04.275Z,39.22
2019-03-24T14:45:08.985Z,42.06
2019-03-24T14:50:12.502Z,41.39
2019-03-24T14:55:15.880Z,42.55
2019-03-24T15:00:36.127Z,42.75
2019-03-24T15:05:39.497Z,42.72
2019-03-24T15:10:42.898Z,42.72
2019-03-24T15:15:46.237Z,42.05
2019-03-24T15:20:49.584Z,41.20
2019-03-24T15:25:54.989Z,41.71
2019-03-24T15:30:58.380Z,41.67
2019-03-24T15:36:01.742Z,42.25
2019-03-24T15:41:05.052Z,44.67
2019-03-24T15:46:08.415Z,45.07
2019-03-24T15:51:16.924Z,45.66
2019-03-24T15:56:16.874Z,47.09
2019-03-24T16:01:20.221Z,48.48
2019-03-24T16:06:23.670Z,47.35
2019-03-24T16:11:26.933Z,49.21
2019-03-24T16:16:30.299Z,50.36
2019-03-24T16:21:33.611Z,51.01
2019-03-24T16:26:36.964Z,51.65
2019-03-24T16:31:40.399Z,51.92
2019-03-24T16:36:44.732Z,52.20
2019-03-24T16:41:48.091Z,53.10
2019-03-24T16:46:51.449Z,53.10
2019-03-24T16:51:54.825Z,53.24
2019-03-24T16:56:58.457Z,53.65
2019-03-24T17:02:01.818Z,54.72
2019-03-24T17:07:05.194Z,54.37
2019-03-24T17:12:09.509Z,54.70
2019-03-24T17:17:13.864Z,55.40
2019-03-24T17:22:17.229Z,55.60
2019-03-24T17:27:21.225Z,56.11
2019-03-24T17:32:24.594Z,56.76
2019-03-24T17:37:29.951Z,56.63
2019-03-24T17:42:33.049Z,57.17
2019-03-24T17:47:36.418Z,57.34
2019-03-24T17:52:39.847Z,57.57
2019-03-24T17:57:43.213Z,57.66
2019-03-24T18:02:46.648Z,58.05
2019-03-24T18:07:50.029Z,58.55
2019-03-24T18:12:53.402Z,58.97
2019-03-24T18:17:56.769Z,59.39
2019-03-24T18:23:00.152Z,59.50
2019-03-24T18:28:03.493Z,60.14
2019-03-24T18:33:06.860Z,60.51
2019-03-24T18:38:10.213Z,61.27
2019-03-24T18:43:13.593Z,61.01
2019-03-24T18:48:17.003Z,61.83
2019-03-24T18:53:20.363Z,61.32
2019-03-24T18:58:23.745Z,62.02
2019-03-24T19:03:27.111Z,62.52
2019-03-24T19:08:30.488Z,62.86
2019-03-24T19:13:33.905Z,62.59
2019-03-24T19:18:37.376Z,62.97
2019-03-24T19:23:40.727Z,63.55
2019-03-24T19:28:44.102Z,63.55
2019-03-24T19:33:47.595Z,63.80
2019-03-24T19:38:51.154Z,63.58
2019-03-24T19:43:54.585Z,63.67
2019-03-24T19:48:58.902Z,64.03
2019-03-24T19:54:02.580Z,64.18
2019-03-24T19:59:05.932Z,64.24
2019-03-24T20:04:09.293Z,64.17
2019-03-24T20:09:12.796Z,63.98
2019-03-24T20:14:16.147Z,64.34
2019-03-24T20:19:19.583Z,64.47
2019-03-24T20:24:22.933Z,64.59
2019-03-24T20:29:26.290Z,64.41
2019-03-24T20:34:29.664Z,64.63
2019-03-24T20:39:33.295Z,65.32
2019-03-24T20:44:36.717Z,64.95
2019-03-24T20:49:41.063Z,65.04
2019-03-24T20:54:44.551Z,65.93
2019-03-24T20:59:48.420Z,66.03
2019-03-24T21:04:51.837Z,65.80
2019-03-24T21:09:55.287Z,66.62
2019-03-24T21:14:58.674Z,66.04
2019-03-24T21:20:02.085Z,65.89
2019-03-24T21:25:06.277Z,65.69
2019-03-24T21:30:11.092Z,67.50
2019-03-24T21:35:14.535Z,66.81
2019-03-24T21:40:18.010Z,67.74
2019-03-24T21:45:21.625Z,66.65
2019-03-24T21:50:26.106Z,67.28
2019-03-24T21:55:29.407Z,67.14
2019-03-24T22:00:36.119Z,68.58
2019-03-24T22:05:39.537Z,69.03
2019-03-24T22:10:42.904Z,67.95
2019-03-24T22:15:46.702Z,67.87
2019-03-24T22:20:50.042Z,68.39
2019-03-24T22:25:53.411Z,68.75
2019-03-24T22:30:56.725Z,70.00
2019-03-24T22:36:00.054Z,70.28
2019-03-24T22:41:04.493Z,70.08
2019-03-24T22:46:07.914Z,70.14
2019-03-24T22:51:11.301Z,69.69
2019-03-24T22:56:14.624Z,68.96
2019-03-24T23:01:18.608Z,69.43
2019-03-24T23:06:21.921Z,69.19
2019-03-24T23:11:25.256Z,69.07
2019-03-24T23:16:28.598Z,69.83
2019-03-24T23:21:31.940Z,72.12
2019-03-24T23:26:35.290Z,72.35
2019-03-24T23:31:38.630Z,70.81
2019-03-24T23:36:41.961Z,72.93
2019-03-24T23:41:46.312Z,72.73
2019-03-24T23:46:49.658Z,71.71
2019-03-24T23:51:53.025Z,73.15
2019-03-24T23:56:56.361Z,72.58
